Latest Coastal Weather Observations for Merimbula

IDN60701

Issued at 2:33 am EDT Saturday 28 February 2015 (issued every 10 minutes, with the page automatically refreshed every 10 minutes)

About coastal observations | Map of coastal stations | Coastal observations for NSW | Marine services | Other Formats
Station Details ID: 069147 Name: MERIMBULA AIRPORT AWS Lat: -36.91 Lon: 149.90 Height: 1.5 m
Data from the previous 72 hours. | See also: Recent months at Merimbula
Date/Time
EDT
Temp

°C
Wind Pressure Rain
since 9am
mm
Weather Cloud Vis
km
Sea
Height
m
Swell
Dir
 
Speed
knots
Gust
knots
hPa Trend Height
m
Period
s
Dir
28/02:30am 20.1 CALM 0 0 1010.1 - 0.0 - - 10 - - - -
28/02:00am 20.0 CALM 0 0 1010.3 - 0.0 - - 10 - - - -
28/01:30am 20.2 CALM 0 0 1010.4 - 0.0 - Partly cloudy 10 - - - -
28/01:00am 20.1 CALM 0 0 1010.5 - 0.0 - - 10 - - - -
28/12:30am 20.0 CALM 0 0 1010.7 - 0.0 - Partly cloudy 9 - - - -
 
Date/Time
EDT
Temp

°C
Wind Pressure Rain
since 9am
mm
Weather Cloud Vis
km
Sea
Height
m
Swell
Dir
 
Speed
knots
Gust
knots
hPa Trend Height
m
Period
s
Dir
27/11:30pm 20.1 CALM 0 0 1010.6 - 0.0 - - 10 - - - -
27/11:00pm 20.2 CALM 0 0 1010.6 - 0.0 - Partly cloudy 9 - - - -
27/10:30pm 20.5 CALM 0 0 1010.8 - 0.0 - Partly cloudy 7 - - - -
27/10:00pm 20.5 CALM 0 0 1011.0 - 0.0 - Partly cloudy 10 - - - -
27/09:30pm 21.0 CALM 0 0 1011.0 - 0.0 - Partly cloudy 10 - - - -
27/09:00pm 21.1 SSW 3 5 1011.2 - 0.0 - Mostly clear 10 - - - -
27/08:30pm 21.1 SSW 3 4 1010.7 - 0.0 - Partly cloudy 10 - - - -
27/08:00pm 21.1 S 4 5 1010.2 - 0.0 - Partly cloudy 8 - - - -
27/07:30pm 21.2 SSE 5 6 1010.0 - 0.0 - - 10 - - - -
27/07:00pm 21.4 SE 5 6 1009.3 - 0.0 - - 10 - - - -
27/06:30pm 21.8 SE 5 7 1009.4 - 0.0 - - 10 - - - -
27/06:00pm 21.9 ESE 5 7 1009.3 - 0.0 - - 10 - - - -
27/05:30pm 21.7 SSE 6 8 1009.1 - 0.0 - - 10 - - - -
27/05:00pm 22.1 SE 5 9 1008.8 - 0.0 - - 10 - - - -
27/04:30pm 22.8 ESE 6 9 1008.6 - 0.0 - - 10 - - - -
27/04:00pm 22.6 E 6 10 1008.8 - 0.0 - - 10 - - - -
27/03:30pm 23.5 E 6 10 1008.9 - 0.0 - - 10 - - - -
27/03:00pm 22.7 E 6 9 1009.3 - 0.0 - - 10 - - - -
27/02:30pm 23.3 E 6 11 1009.6 - 0.0 - - 10 - - - -
27/02:00pm 23.4 E 7 11 1009.8 - 0.0 - - 10 - - - -
27/01:30pm 23.2 ESE 6 9 1010.1 - 0.0 - - 10 - - - -
27/01:00pm 22.8 ESE 7 9 1010.5 - 0.0 - - 10 - - - -
27/12:30pm 22.5 E 7 11 1010.8 - 0.0 - - 10 - - - -
27/12:00pm 22.7 E 6 9 1010.9 - 0.0 - - 10 - - - -
27/11:30am 22.5 NE 7 11 1010.9 - 0.0 - - 10 - - - -
27/11:00am 21.7 NE 5 8 1010.9 - 0.0 - - 10 - - - -
27/10:30am 20.4 E 1 5 1011.1 - 0.0 - - 8 - - - -
27/10:00am 19.1 E 2 5 1011.2 - 0.0 - - 10 - - - -
27/09:30am 19.6 ESE 3 6 1010.8 - 0.0 - - 10 - - - -
27/09:00am 18.6 CALM 0 0 1010.7 - 0.0 - - 9 - - - -
27/08:30am 18.0 CALM 0 0 1010.6 - 0.0 - - 10 - - - -
27/08:02am 16.9 CALM 0 0 1010.6 - 0.0 - - 10 - - - -
27/08:00am 16.7 CALM 0 0 1010.7 - 0.0 - - 10 - - - -
27/07:30am 15.3 CALM 0 0 1010.3 - 0.0 - - 2 - - - -
27/07:09am 14.9 CALM 0 0 1010.2 - 0.0 - - 5 - - - -
27/07:04am 14.8 CALM 0 0 1010.3 - 0.0 - - 6 - - - -
27/07:00am 14.8 CALM 0 0 1010.2 - 0.0 - - 6 - - - -
27/06:38am 15.0 CALM 0 0 1010.0 - 0.0 - - 5 - - - -
27/06:30am 15.0 CALM 0 0 1010.0 - 0.0 - - 6 - - - -
27/06:16am 15.3 CALM 0 0 1009.8 - 0.0 - - 7 - - - -
27/06:04am 15.2 CALM 0 0 1009.8 - 0.0 - - 5 - - - -
27/06:00am 15.3 CALM 0 0 1009.8 - 0.0 - - 6 - - - -
27/05:30am 15.3 CALM 0 0 1009.7 - 0.0 - - 8 - - - -
27/05:00am 15.6 CALM 0 0 1009.9 - 0.0 - - 10 - - - -
27/04:30am 15.4 CALM 0 0 1010.0 - 0.0 - - 10 - - - -
27/04:00am 15.3 CALM 0 0 1010.2 - 0.0 - - 9 - - - -
27/03:30am 15.4 SSW 4 5 1010.2 - 0.0 - - 9 - - - -
27/03:00am 15.4 CALM 0 0 1010.1 - 0.0 - - 10 - - - -
27/02:30am 15.8 SW 1 5 1010.2 - 0.0 - - 10 - - - -
27/02:00am 15.9 SSW 4 6 1010.2 - 0.0 - - 10 - - - -
27/01:30am 15.9 SSW 2 5 1010.5 - 0.0 - - 10 - - - -
27/01:00am 16.0 CALM 0 0 1010.8 - 0.0 - - 10 - - - -
27/12:30am 16.7 WSW 3 5 1011.0 - 0.0 - - 10 - - - -
27/12:00am 17.3 SSW 5 7 1011.0 - 0.0 - - 10 - - - -
 
Date/Time
EDT
Temp

°C
Wind Pressure Rain
since 9am
mm
Weather Cloud Vis
km
Sea
Height
m
Swell
Dir
 
Speed
knots
Gust
knots
hPa Trend Height
m
Period
s
Dir
26/11:30pm 17.9 CALM 0 0 1011.0 - 0.0 - - 10 - - - -
26/11:00pm 18.4 CALM 0 0 1011.1 - 0.0 - - 10 - - - -
26/10:30pm 18.8 CALM 0 0 1011.1 - 0.0 - - 10 - - - -
26/10:00pm 18.4 CALM 0 0 1011.0 - 0.0 - - 10 - - - -
26/09:30pm 19.3 CALM 0 0 1010.9 - 0.0 - - 10 - - - -
26/09:00pm 19.3 CALM 0 0 1010.4 - 0.0 - - 10 - - - -
26/08:30pm 20.1 CALM 0 0 1009.9 - 0.0 - - 10 - - - -
26/08:00pm 20.2 CALM 0 0 1009.4 - 0.0 - - 10 - - - -
26/07:30pm 20.4 CALM 0 0 1008.8 - 0.0 - - 10 - - - -
26/07:00pm 21.3 CALM 0 0 1008.3 - 0.0 - - 10 - - - -
26/06:30pm 21.7 CALM 0 0 1008.2 - 0.0 - - 10 - - - -
26/06:00pm 22.4 SE 3 6 1007.9 - 0.0 - - 10 - - - -
26/05:30pm 22.7 SE 5 8 1007.8 - 0.0 - - 10 - - - -
26/05:00pm 21.8 SE 5 7 1007.9 - 0.0 - - 10 - - - -
26/04:30pm 21.2 SE 5 7 1007.8 - 0.0 - - 10 - - - -
26/04:00pm 21.7 ESE 4 6 1007.6 - 0.0 - - 10 - - - -
26/03:30pm 21.5 ESE 5 7 1007.5 - 0.0 - - 10 - - - -
26/03:00pm 22.2 ESE 5 7 1007.5 - 0.0 - Mostly clear 10 - - - -
26/02:30pm 22.6 E 4 6 1007.5 - 0.0 - - 10 - - - -
26/02:00pm 21.9 E 4 6 1007.9 - 0.0 - - 10 - - - -
26/01:30pm 21.0 ESE 5 7 1007.9 - 0.0 - - 10 - - - -
26/01:00pm 21.9 E 6 8 1007.9 - 0.0 - - 10 - - - -
26/12:30pm 23.1 ENE 5 7 1007.9 - 0.0 - - 10 - - - -
26/12:00pm 22.5 E 5 7 1008.3 - 0.0 - Mostly clear 10 - - - -
26/11:30am 22.2 ESE 5 7 1008.4 - 0.0 - - 10 - - - -
26/11:00am 21.1 ESE 4 6 1008.8 - 0.0 - - 10 - - - -
26/10:30am 20.1 ESE 5 6 1008.7 - 0.0 - - 9 - - - -
26/10:00am 19.7 CALM 0 3 1008.7 - 0.0 - - 8 - - - -
26/09:30am 18.2 CALM 0 0 1008.8 - 0.0 - - 10 - - - -
26/09:00am 17.1 CALM 0 0 1008.9 - 0.2 - - 10 - - - -
26/08:30am 16.3 CALM 0 0 1008.9 - 0.2 - - 10 - - - -
26/08:00am 15.5 CALM 0 6 1008.8 - 0.2 - - 10 - - - -
26/07:30am 14.1 CALM 0 0 1008.9 - 0.2 - - 10 - - - -
26/07:00am 12.9 CALM 0 0 1009.1 - 0.2 - - 10 - - - -
26/06:30am 12.3 CALM 0 0 1009.0 - 0.2 - - 10 - - - -
26/06:00am 12.6 CALM 0 0 1009.0 - 0.2 - - 10 - - - -
26/05:30am 13.0 CALM 0 0 1009.1 - 0.2 - - 10 - - - -
26/05:00am 12.9 CALM 0 0 1009.4 - 0.2 - - 10 - - - -
26/04:30am 13.4 CALM 0 0 1009.7 - 0.2 - - 10 - - - -
26/04:00am 13.7 CALM 0 0 1010.0 - 0.2 - - 10 - - - -
26/03:30am 14.0 CALM 0 0 1010.4 - 0.2 - - 10 - - - -
26/03:00am 14.1 CALM 0 0 1010.9 - 0.2 - - 10 - - - -
26/02:30am 14.0 CALM 0 0 1011.2 - 0.2 - - 10 - - - -
26/02:00am 14.2 CALM 0 0 1011.6 - 0.2 - - 10 - - - -
26/01:30am 14.5 CALM 0 0 1012.2 - 0.2 - - 10 - - - -
26/01:00am 15.4 CALM 0 0 1012.6 - 0.2 - - 10 - - - -
26/12:30am 16.8 NW 4 5 1012.7 - 0.2 - - 10 - - - -
26/12:00am 17.3 NW 5 7 1013.2 - 0.2 - - 10 - - - -
 
Date/Time
EDT
Temp

°C
Wind Pressure Rain
since 9am
mm
Weather Cloud Vis
km
Sea
Height
m
Swell
Dir
 
Speed
knots
Gust
knots
hPa Trend Height
m
Period
s
Dir
25/11:30pm 16.8 CALM 0 0 1013.4 - 0.2 - - 10 - - - -
25/11:00pm 17.0 CALM 0 0 1013.9 - 0.2 - Partly cloudy 10 - - - -
25/10:30pm 16.8 CALM 0 2 1014.3 - 0.2 - Partly cloudy 10 - - - -
25/10:00pm 16.4 NW 5 7 1014.8 - 0.2 - Partly cloudy 10 - - - -
25/09:30pm 16.4 CALM 0 3 1015.1 - 0.2 - - 10 - - - -
25/09:00pm 17.2 CALM 0 0 1014.9 - 0.2 - - 10 - - - -
25/08:30pm 17.5 CALM 0 0 1014.9 - 0.2 - - 10 - - - -
25/08:00pm 17.1 CALM 0 0 1015.0 - 0.2 - - 10 - - - -
25/07:30pm 18.5 CALM 0 0 1015.1 - 0.2 - - 10 - - - -
25/07:00pm 20.0 CALM 0 0 1015.3 - 0.2 - - 10 - - - -
25/06:30pm 20.6 E 3 5 1015.4 - 0.2 - - 10 - - - -
25/06:00pm 20.7 E 3 5 1015.7 - 0.2 - - 10 - - - -
25/05:30pm 20.5 E 4 5 1016.0 - 0.2 - Partly cloudy 10 - - - -
25/05:00pm 20.6 E 3 5 1016.5 - 0.2 - Partly cloudy 10 - - - -
25/04:30pm 20.7 ESE 5 6 1016.6 - 0.2 - Partly cloudy 10 - - - -
25/04:00pm 20.8 ESE 5 8 1016.8 - 0.2 - Partly cloudy 10 - - - -
25/03:30pm 20.9 ESE 6 8 1017.0 - 0.2 - Partly cloudy 10 - - - -
25/03:00pm 20.7 ESE 4 7 1017.3 - 0.2 Recent precip. Mostly clear 10 - - - -
25/02:30pm 20.6 CALM 0 0 1017.8 - 0.2 - Partly cloudy 10 - - - -
25/02:00pm 20.4 CALM 0 0 1018.1 - 0.0 - Partly cloudy 10 - - - -
25/01:30pm 20.1 CALM 0 3 1018.4 - 0.0 - Partly cloudy 10 - - - -
25/01:00pm 20.2 CALM 0 0 1018.8 - 0.0 - Partly cloudy 10 - - - -
25/12:30pm 19.7 WSW 3 5 1019.1 - 0.0 - Partly cloudy 10 - - - -
25/12:00pm 19.4 CALM 0 4 1019.4 - 0.0 - Mostly clear 10 - - - -
25/11:30am 19.0 SSW 3 5 1019.7 - 0.0 - Partly cloudy 10 - - - -
25/11:00am 18.6 SSE 4 6 1019.7 - 0.0 - Partly cloudy 10 - - - -
25/10:30am 18.5 CALM 0 0 1019.6 - 0.0 - Partly cloudy 10 - - - -
25/10:00am 17.9 CALM 0 0 1019.7 - 0.0 - Partly cloudy 10 - - - -
25/09:30am 17.4 CALM 0 0 1019.8 - 0.0 - Partly cloudy 10 - - - -
25/09:00am 17.3 WNW 4 5 1019.8 - 1.0 - Mostly clear 10 - - - -
25/08:30am 16.8 WNW 4 5 1019.6 - 1.0 - - 10 - - - -
25/08:00am 16.5 W 4 6 1019.4 - 1.0 - Partly cloudy 10 - - - -
25/07:30am 16.0 WNW 5 6 1019.1 - 1.0 - - 10 - - - -
25/07:00am 15.9 W 2 4 1018.9 - 1.0 - - 10 - - - -
25/06:30am 15.9 WNW 3 4 1018.9 - 1.0 - Partly cloudy 10 - - - -
25/06:00am 15.9 SW 3 5 1018.8 - 1.0 Recent precip. - 10 - - - -
25/05:50am 15.9 SW 4 6 1018.8 - 1.0 - Partly cloudy 10 - - - -
25/05:30am 16.0 SSW 4 5 1018.6 - 1.0 - Partly cloudy 3 - - - -
25/05:00am 16.0 SW 2 7 1018.4 - 0.8 - Partly cloudy 4 - - - -
25/04:54am 16.1 CALM 0 0 1018.3 - 0.6 - Partly cloudy 5 - - - -
25/04:30am 16.2 CALM 0 0 1018.3 - 0.6 - Cloudy 10 - - - -
25/04:09am 16.2 CALM 0 0 1018.3 - 0.6 - Partly cloudy 10 - - - -
25/04:00am 16.2 SW 2 4 1018.3 - 0.6 - Partly cloudy 6 - - - -
25/03:30am 16.6 SE 5 7 1018.5 - 0.4 - Partly cloudy 5 - - - -
25/03:29am 16.6 SE 5 6 1018.5 - 0.4 - Partly cloudy 5 - - - -
25/03:00am 16.6 SSW 4 7 1018.6 - 0.4 - Cloudy 10 - - - -

Other Formats:

Comma delimited format used in spreadsheet applications
http://www.bom.gov.au/fwo/IDN60701/IDN60701.95929.axf

JavaScript Object Notation format (JSON) in row-major order
http://www.bom.gov.au/fwo/IDN60701/IDN60701.95929.json